Airport View

Enter AWOS ICAO identifier for current METAR.

ex. KFNL

KSUA 251610Z AUTO 19005KT 10SM VCTS SCT013 BKN021 OVC070 27/24 A2992 RMK AO2 LTG DSNT E

25 Oct 2020 16:11

Phone: 772-692-7399

Other Area AWOS: KFPR - KVRB - KPBI - KOBE

TAF KSUA 251124Z 2512/2612 VRB04KT P6SM VCSH SCT025 BKN060 FM251300 16007KT P6SM VCSH SCT020 SCT040 FM251500 15010KT P6SM VCTS SCT025CB BKN050 TEMPO 2517/2521 3SM TSRA BKN025CB FM260000 16006KT P6SM VCSH SCT025 BKN050